sensor_id;sensor_type;location;lat;lon;timestamp;temperature;humidity
33811;DHT22;20119;48.334;16.206;2023-08-17T05:34:44;21.10;99.90
33811;DHT22;20119;48.334;16.206;2023-08-17T05:37:12;21.60;99.90
33811;DHT22;20119;48.334;16.206;2023-08-17T05:42:21;21.30;99.90
33811;DHT22;20119;48.334;16.206;2023-08-17T05:47:23;22.80;99.90
33811;DHT22;20119;48.334;16.206;2023-08-17T05:49:52;23.10;99.90
33811;DHT22;20119;48.334;16.206;2023-08-17T05:52:19;22.90;99.90
33811;DHT22;20119;48.334;16.206;2023-08-17T05:54:46;22.80;99.90
33811;DHT22;20119;48.334;16.206;2023-08-17T05:57:13;22.60;99.90
33811;DHT22;20119;48.334;16.206;2023-08-17T05:59:40;22.50;99.90
33811;DHT22;20119;48.334;16.206;2023-08-17T06:02:07;22.30;99.90
33811;DHT22;20119;48.334;16.206;2023-08-17T06:04:34;22.50;99.90
33811;DHT22;20119;48.334;16.206;2023-08-17T06:07:02;22.60;99.90
33811;DHT22;20119;48.334;16.206;2023-08-17T06:09:29;23.20;99.90
33811;DHT22;20119;48.334;16.206;2023-08-17T06:11:56;23.20;99.90
33811;DHT22;20119;48.334;16.206;2023-08-17T06:14:23;22.90;99.90
33811;DHT22;20119;48.334;16.206;2023-08-17T06:16:50;24.00;99.90
33811;DHT22;20119;48.334;16.206;2023-08-17T06:19:17;25.10;99.90
33811;DHT22;20119;48.334;16.206;2023-08-17T06:21:44;24.70;99.90
33811;DHT22;20119;48.334;16.206;2023-08-17T06:24:12;24.40;99.90
33811;DHT22;20119;48.334;16.206;2023-08-17T06:26:39;24.10;99.90
33811;DHT22;20119;48.334;16.206;2023-08-17T06:29:07;24.00;99.90
33811;DHT22;20119;48.334;16.206;2023-08-17T06:31:34;23.70;99.90
33811;DHT22;20119;48.334;16.206;2023-08-17T06:34:01;23.60;99.90
33811;DHT22;20119;48.334;16.206;2023-08-17T06:36:30;23.40;99.90
33811;DHT22;20119;48.334;16.206;2023-08-17T06:38:58;23.50;99.90
33811;DHT22;20119;48.334;16.206;2023-08-17T06:41:26;23.90;99.90
33811;DHT22;20119;48.334;16.206;2023-08-17T06:43:53;23.90;99.90
33811;DHT22;20119;48.334;16.206;2023-08-17T06:46:20;23.80;99.90
33811;DHT22;20119;48.334;16.206;2023-08-17T06:48:47;23.80;99.90
33811;DHT22;20119;48.334;16.206;2023-08-17T06:51:14;23.70;99.90
33811;DHT22;20119;48.334;16.206;2023-08-17T06:53:41;23.80;99.90
33811;DHT22;20119;48.334;16.206;2023-08-17T06:56:09;23.90;99.90
33811;DHT22;20119;48.334;16.206;2023-08-17T06:58:37;23.50;99.90
33811;DHT22;20119;48.334;16.206;2023-08-17T07:01:04;23.40;99.90
33811;DHT22;20119;48.334;16.206;2023-08-17T07:03:31;23.10;99.90
33811;DHT22;20119;48.334;16.206;2023-08-17T07:06:00;22.90;99.90
33811;DHT22;20119;48.334;16.206;2023-08-17T07:08:28;22.80;99.90
33811;DHT22;20119;48.334;16.206;2023-08-17T07:10:55;23.00;99.90
33811;DHT22;20119;48.334;16.206;2023-08-17T07:13:22;22.70;99.90
33811;DHT22;20119;48.334;16.206;2023-08-17T07:15:50;22.40;99.90
33811;DHT22;20119;48.334;16.206;2023-08-17T07:18:17;22.60;99.90
33811;DHT22;20119;48.334;16.206;2023-08-17T07:20:44;22.60;99.90
33811;DHT22;20119;48.334;16.206;2023-08-17T07:23:11;22.60;99.90
33811;DHT22;20119;48.334;16.206;2023-08-17T07:25:38;22.60;99.90
33811;DHT22;20119;48.334;16.206;2023-08-17T07:28:05;23.20;99.90
33811;DHT22;20119;48.334;16.206;2023-08-17T07:30:32;22.90;99.90
33811;DHT22;20119;48.334;16.206;2023-08-17T07:33:00;22.60;99.90
33811;DHT22;20119;48.334;16.206;2023-08-17T07:35:27;22.90;99.90
33811;DHT22;20119;48.334;16.206;2023-08-17T07:37:54;23.00;99.90
33811;DHT22;20119;48.334;16.206;2023-08-17T07:40:21;23.50;99.90
33811;DHT22;20119;48.334;16.206;2023-08-17T07:42:49;23.10;99.90
33811;DHT22;20119;48.334;16.206;2023-08-17T07:45:18;23.00;99.90
33811;DHT22;20119;48.334;16.206;2023-08-17T07:47:49;23.20;99.90
33811;DHT22;20119;48.334;16.206;2023-08-17T07:50:17;23.30;99.90
33811;DHT22;20119;48.334;16.206;2023-08-17T07:52:45;23.10;99.90
33811;DHT22;20119;48.334;16.206;2023-08-17T07:57:50;24.30;99.90
33811;DHT22;20119;48.334;16.206;2023-08-17T08:05:30;25.50;99.90
33811;DHT22;20119;48.334;16.206;2023-08-17T08:07:57;26.10;99.90
33811;DHT22;20119;48.334;16.206;2023-08-17T08:13:09;26.00;99.90
33811;DHT22;20119;48.334;16.206;2023-08-17T08:15:37;25.60;99.90
33811;DHT22;20119;48.334;16.206;2023-08-17T08:18:04;26.40;99.90
33811;DHT22;20119;48.334;16.206;2023-08-17T08:20:33;26.50;99.90
33811;DHT22;20119;48.334;16.206;2023-08-17T08:23:00;26.50;99.90
33811;DHT22;20119;48.334;16.206;2023-08-17T08:25:29;26.70;99.90
33811;DHT22;20119;48.334;16.206;2023-08-17T08:27:55;27.30;99.90
33811;DHT22;20119;48.334;16.206;2023-08-17T08:30:22;27.50;99.90
33811;DHT22;20119;48.334;16.206;2023-08-17T08:32:50;28.00;99.90
33811;DHT22;20119;48.334;16.206;2023-08-17T08:35:17;29.80;99.90
33811;DHT22;20119;48.334;16.206;2023-08-17T08:37:45;29.50;99.90
33811;DHT22;20119;48.334;16.206;2023-08-17T08:40:12;29.00;99.90
33811;DHT22;20119;48.334;16.206;2023-08-17T08:42:39;28.60;99.90
33811;DHT22;20119;48.334;16.206;2023-08-17T08:45:07;29.30;99.90
33811;DHT22;20119;48.334;16.206;2023-08-17T08:47:36;30.20;99.90
33811;DHT22;20119;48.334;16.206;2023-08-17T08:50:04;30.10;99.90
33811;DHT22;20119;48.334;16.206;2023-08-17T08:52:33;30.80;99.90
33811;DHT22;20119;48.334;16.206;2023-08-17T08:55:10;31.80;99.90
33811;DHT22;20119;48.334;16.206;2023-08-17T08:57:39;31.40;99.90
33811;DHT22;20119;48.334;16.206;2023-08-17T09:00:07;31.70;99.90
33811;DHT22;20119;48.334;16.206;2023-08-17T09:02:35;32.10;99.90
33811;DHT22;20119;48.334;16.206;2023-08-17T09:05:02;32.10;99.90
33811;DHT22;20119;48.334;16.206;2023-08-17T09:07:30;32.90;99.90
33811;DHT22;20119;48.334;16.206;2023-08-17T09:09:57;33.00;99.90
33811;DHT22;20119;48.334;16.206;2023-08-17T09:12:25;32.30;99.90
33811;DHT22;20119;48.334;16.206;2023-08-17T09:14:52;31.00;99.90
33811;DHT22;20119;48.334;16.206;2023-08-17T09:17:23;29.50;99.90
33811;DHT22;20119;48.334;16.206;2023-08-17T09:19:50;28.60;99.90
33811;DHT22;20119;48.334;16.206;2023-08-17T09:22:23;28.30;99.90
33811;DHT22;20119;48.334;16.206;2023-08-17T09:24:50;28.30;99.90
33811;DHT22;20119;48.334;16.206;2023-08-17T09:27:17;27.90;99.90
33811;DHT22;20119;48.334;16.206;2023-08-17T09:29:46;27.70;99.90
33811;DHT22;20119;48.334;16.206;2023-08-17T09:32:15;27.50;99.90
33811;DHT22;20119;48.334;16.206;2023-08-17T09:34:43;27.60;99.90
33811;DHT22;20119;48.334;16.206;2023-08-17T09:37:12;27.50;99.90
33811;DHT22;20119;48.334;16.206;2023-08-17T09:39:39;27.70;99.90
33811;DHT22;20119;48.334;16.206;2023-08-17T09:42:06;27.70;99.90
33811;DHT22;20119;48.334;16.206;2023-08-17T09:44:33;27.30;99.90
33811;DHT22;20119;48.334;16.206;2023-08-17T09:47:05;27.50;99.90
33811;DHT22;20119;48.334;16.206;2023-08-17T09:49:32;27.50;99.90
33811;DHT22;20119;48.334;16.206;2023-08-17T09:51:59;27.60;99.90
33811;DHT22;20119;48.334;16.206;2023-08-17T09:54:28;27.80;99.90
33811;DHT22;20119;48.334;16.206;2023-08-17T09:56:58;28.10;99.90
33811;DHT22;20119;48.334;16.206;2023-08-17T09:59:25;28.30;99.90
33811;DHT22;20119;48.334;16.206;2023-08-17T10:01:52;28.00;99.90
33811;DHT22;20119;48.334;16.206;2023-08-17T10:04:21;27.90;99.90
33811;DHT22;20119;48.334;16.206;2023-08-17T10:06:52;28.10;99.90
33811;DHT22;20119;48.334;16.206;2023-08-17T10:09:24;28.30;99.90
33811;DHT22;20119;48.334;16.206;2023-08-17T10:11:52;28.20;99.90
33811;DHT22;20119;48.334;16.206;2023-08-17T10:14:26;27.80;99.90
33811;DHT22;20119;48.334;16.206;2023-08-17T10:16:59;28.00;99.90
33811;DHT22;20119;48.334;16.206;2023-08-17T10:19:37;27.80;99.90
33811;DHT22;20119;48.334;16.206;2023-08-17T10:22:12;27.70;99.90
33811;DHT22;20119;48.334;16.206;2023-08-17T10:24:40;27.60;99.90
33811;DHT22;20119;48.334;16.206;2023-08-17T10:27:09;27.80;99.90
33811;DHT22;20119;48.334;16.206;2023-08-17T10:29:38;28.20;99.90
33811;DHT22;20119;48.334;16.206;2023-08-17T10:32:06;28.20;99.90
33811;DHT22;20119;48.334;16.206;2023-08-17T10:34:35;28.20;99.90
33811;DHT22;20119;48.334;16.206;2023-08-17T10:37:04;28.40;99.90
33811;DHT22;20119;48.334;16.206;2023-08-17T10:39:31;28.30;99.90
33811;DHT22;20119;48.334;16.206;2023-08-17T10:42:00;28.60;99.90
33811;DHT22;20119;48.334;16.206;2023-08-17T10:44:38;28.40;99.90
33811;DHT22;20119;48.334;16.206;2023-08-17T10:47:23;28.40;99.90
33811;DHT22;20119;48.334;16.206;2023-08-17T10:49:52;28.00;99.90
33811;DHT22;20119;48.334;16.206;2023-08-17T10:52:27;27.70;99.90
33811;DHT22;20119;48.334;16.206;2023-08-17T10:54:54;27.20;99.90
33811;DHT22;20119;48.334;16.206;2023-08-17T10:57:27;27.70;99.90
33811;DHT22;20119;48.334;16.206;2023-08-17T11:00:16;27.60;99.90
33811;DHT22;20119;48.334;16.206;2023-08-17T11:02:45;28.00;99.90
33811;DHT22;20119;48.334;16.206;2023-08-17T11:05:14;27.80;99.90
33811;DHT22;20119;48.334;16.206;2023-08-17T11:07:42;28.20;99.90
33811;DHT22;20119;48.334;16.206;2023-08-17T11:10:27;28.10;99.90
33811;DHT22;20119;48.334;16.206;2023-08-17T11:12:54;28.50;99.90
33811;DHT22;20119;48.334;16.206;2023-08-17T11:15:23;28.50;99.90
33811;DHT22;20119;48.334;16.206;2023-08-17T11:17:50;28.90;99.90
33811;DHT22;20119;48.334;16.206;2023-08-17T11:20:18;28.60;99.90
33811;DHT22;20119;48.334;16.206;2023-08-17T11:22:46;28.60;99.90
33811;DHT22;20119;48.334;16.206;2023-08-17T11:25:15;28.80;99.90
33811;DHT22;20119;48.334;16.206;2023-08-17T11:27:42;29.00;99.90
33811;DHT22;20119;48.334;16.206;2023-08-17T11:30:10;29.20;99.90
33811;DHT22;20119;48.334;16.206;2023-08-17T11:32:38;29.20;99.90
33811;DHT22;20119;48.334;16.206;2023-08-17T11:35:05;29.60;99.90
33811;DHT22;20119;48.334;16.206;2023-08-17T11:37:34;29.90;99.90
33811;DHT22;20119;48.334;16.206;2023-08-17T11:40:01;29.70;99.90
33811;DHT22;20119;48.334;16.206;2023-08-17T11:42:28;29.70;99.90
33811;DHT22;20119;48.334;16.206;2023-08-17T11:44:55;29.40;99.90
33811;DHT22;20119;48.334;16.206;2023-08-17T11:47:22;29.50;99.90
33811;DHT22;20119;48.334;16.206;2023-08-17T11:49:49;29.60;99.90
33811;DHT22;20119;48.334;16.206;2023-08-17T11:52:16;29.40;99.90
33811;DHT22;20119;48.334;16.206;2023-08-17T11:54:44;29.00;99.90
33811;DHT22;20119;48.334;16.206;2023-08-17T11:57:11;28.60;99.90
33811;DHT22;20119;48.334;16.206;2023-08-17T11:59:38;28.30;99.90
33811;DHT22;20119;48.334;16.206;2023-08-17T12:02:05;28.10;99.90
33811;DHT22;20119;48.334;16.206;2023-08-17T12:04:32;28.00;99.90
33811;DHT22;20119;48.334;16.206;2023-08-17T12:06:59;27.90;99.90
33811;DHT22;20119;48.334;16.206;2023-08-17T12:09:26;27.70;99.90
33811;DHT22;20119;48.334;16.206;2023-08-17T12:12:01;27.90;99.90
33811;DHT22;20119;48.334;16.206;2023-08-17T12:14:28;28.50;99.90
33811;DHT22;20119;48.334;16.206;2023-08-17T12:16:55;28.50;99.90
33811;DHT22;20119;48.334;16.206;2023-08-17T12:19:25;28.40;99.90
33811;DHT22;20119;48.334;16.206;2023-08-17T12:21:52;28.50;99.90
33811;DHT22;20119;48.334;16.206;2023-08-17T12:24:19;28.40;99.90
33811;DHT22;20119;48.334;16.206;2023-08-17T12:26:46;28.40;99.90
33811;DHT22;20119;48.334;16.206;2023-08-17T12:29:15;28.10;99.90
33811;DHT22;20119;48.334;16.206;2023-08-17T12:31:42;28.30;99.90
33811;DHT22;20119;48.334;16.206;2023-08-17T12:34:09;28.60;99.90
33811;DHT22;20119;48.334;16.206;2023-08-17T12:36:36;28.70;99.90
33811;DHT22;20119;48.334;16.206;2023-08-17T12:39:04;28.80;99.90
33811;DHT22;20119;48.334;16.206;2023-08-17T12:41:31;29.10;99.90
33811;DHT22;20119;48.334;16.206;2023-08-17T12:43:58;29.30;99.90
33811;DHT22;20119;48.334;16.206;2023-08-17T12:46:29;29.30;99.90
33811;DHT22;20119;48.334;16.206;2023-08-17T12:48:58;28.70;99.90
33811;DHT22;20119;48.334;16.206;2023-08-17T12:51:25;29.10;99.90
33811;DHT22;20119;48.334;16.206;2023-08-17T12:53:52;29.10;99.90
33811;DHT22;20119;48.334;16.206;2023-08-17T12:56:19;29.30;99.90
33811;DHT22;20119;48.334;16.206;2023-08-17T12:58:46;29.20;99.90
33811;DHT22;20119;48.334;16.206;2023-08-17T13:01:14;29.10;99.90
33811;DHT22;20119;48.334;16.206;2023-08-17T13:03:42;28.90;99.90
33811;DHT22;20119;48.334;16.206;2023-08-17T13:06:09;28.90;99.90
33811;DHT22;20119;48.334;16.206;2023-08-17T13:08:36;29.10;99.90
33811;DHT22;20119;48.334;16.206;2023-08-17T13:11:03;29.20;99.90
33811;DHT22;20119;48.334;16.206;2023-08-17T13:13:30;29.20;99.90
33811;DHT22;20119;48.334;16.206;2023-08-17T13:15:57;28.80;99.90
33811;DHT22;20119;48.334;16.206;2023-08-17T13:18:25;28.70;99.90
33811;DHT22;20119;48.334;16.206;2023-08-17T13:20:53;28.70;99.90
33811;DHT22;20119;48.334;16.206;2023-08-17T13:23:20;28.70;99.90
33811;DHT22;20119;48.334;16.206;2023-08-17T13:25:47;28.60;99.90
33811;DHT22;20119;48.334;16.206;2023-08-17T13:28:18;28.90;99.90
33811;DHT22;20119;48.334;16.206;2023-08-17T13:30:45;29.10;99.90
33811;DHT22;20119;48.334;16.206;2023-08-17T13:33:12;29.10;99.90
33811;DHT22;20119;48.334;16.206;2023-08-17T13:35:39;29.10;99.90
33811;DHT22;20119;48.334;16.206;2023-08-17T13:38:09;29.40;99.90
33811;DHT22;20119;48.334;16.206;2023-08-17T13:40:36;29.30;99.90
33811;DHT22;20119;48.334;16.206;2023-08-17T13:43:04;29.40;99.90
33811;DHT22;20119;48.334;16.206;2023-08-17T13:45:37;29.40;99.90
33811;DHT22;20119;48.334;16.206;2023-08-17T13:48:05;29.10;99.90
33811;DHT22;20119;48.334;16.206;2023-08-17T13:50:32;29.10;99.90
33811;DHT22;20119;48.334;16.206;2023-08-17T13:52:59;29.20;99.90
33811;DHT22;20119;48.334;16.206;2023-08-17T13:55:28;29.30;99.90
33811;DHT22;20119;48.334;16.206;2023-08-17T13:57:55;29.40;99.90
33811;DHT22;20119;48.334;16.206;2023-08-17T14:00:22;29.40;99.90
33811;DHT22;20119;48.334;16.206;2023-08-17T14:02:49;29.50;99.90
33811;DHT22;20119;48.334;16.206;2023-08-17T14:05:16;29.50;99.90
33811;DHT22;20119;48.334;16.206;2023-08-17T14:07:43;29.60;99.90
33811;DHT22;20119;48.334;16.206;2023-08-17T14:10:10;29.40;99.90
33811;DHT22;20119;48.334;16.206;2023-08-17T14:12:39;29.20;99.90
33811;DHT22;20119;48.334;16.206;2023-08-17T14:15:07;29.10;99.90
33811;DHT22;20119;48.334;16.206;2023-08-17T14:17:34;29.20;99.90
33811;DHT22;20119;48.334;16.206;2023-08-17T14:20:01;28.90;99.90
33811;DHT22;20119;48.334;16.206;2023-08-17T14:22:28;28.80;99.90
33811;DHT22;20119;48.334;16.206;2023-08-17T14:24:55;28.90;99.90
33811;DHT22;20119;48.334;16.206;2023-08-17T14:27:22;28.80;99.90
33811;DHT22;20119;48.334;16.206;2023-08-17T14:29:50;28.70;99.90
33811;DHT22;20119;48.334;16.206;2023-08-17T14:32:17;28.80;99.90
33811;DHT22;20119;48.334;16.206;2023-08-17T14:34:44;28.70;99.90
33811;DHT22;20119;48.334;16.206;2023-08-17T14:37:11;28.70;99.90
33811;DHT22;20119;48.334;16.206;2023-08-17T14:39:38;28.60;99.90
33811;DHT22;20119;48.334;16.206;2023-08-17T14:42:05;28.70;99.90
33811;DHT22;20119;48.334;16.206;2023-08-17T14:44:32;28.80;99.90
33811;DHT22;20119;48.334;16.206;2023-08-17T14:47:01;28.60;99.90
33811;DHT22;20119;48.334;16.206;2023-08-17T14:55:01;28.00;99.90
33811;DHT22;20119;48.334;16.206;2023-08-17T14:57:30;28.00;99.90
33811;DHT22;20119;48.334;16.206;2023-08-17T14:59:57;28.10;99.90
33811;DHT22;20119;48.334;16.206;2023-08-17T15:02:25;28.10;99.90
33811;DHT22;20119;48.334;16.206;2023-08-17T15:04:53;28.20;99.90
33811;DHT22;20119;48.334;16.206;2023-08-17T15:07:20;28.20;99.90
33811;DHT22;20119;48.334;16.206;2023-08-17T15:09:47;28.30;99.90
33811;DHT22;20119;48.334;16.206;2023-08-17T15:12:15;28.30;99.90
33811;DHT22;20119;48.334;16.206;2023-08-17T15:14:42;28.40;99.90
33811;DHT22;20119;48.334;16.206;2023-08-17T15:17:08;28.40;99.90
33811;DHT22;20119;48.334;16.206;2023-08-17T15:19:39;28.30;99.90
33811;DHT22;20119;48.334;16.206;2023-08-17T15:22:06;28.20;99.90
33811;DHT22;20119;48.334;16.206;2023-08-17T15:24:33;28.10;99.90
33811;DHT22;20119;48.334;16.206;2023-08-17T15:27:00;28.10;99.90
33811;DHT22;20119;48.334;16.206;2023-08-17T15:29:27;28.00;99.90
33811;DHT22;20119;48.334;16.206;2023-08-17T15:31:54;28.00;99.90
33811;DHT22;20119;48.334;16.206;2023-08-17T15:34:21;27.90;99.90
33811;DHT22;20119;48.334;16.206;2023-08-17T15:36:49;28.00;99.90
33811;DHT22;20119;48.334;16.206;2023-08-17T15:39:16;28.00;99.90
33811;DHT22;20119;48.334;16.206;2023-08-17T15:41:43;28.00;99.90
33811;DHT22;20119;48.334;16.206;2023-08-17T15:44:10;28.00;99.90
33811;DHT22;20119;48.334;16.206;2023-08-17T15:46:37;27.90;99.90
33811;DHT22;20119;48.334;16.206;2023-08-17T15:49:05;27.90;99.90
33811;DHT22;20119;48.334;16.206;2023-08-17T15:51:32;27.90;99.90
33811;DHT22;20119;48.334;16.206;2023-08-17T15:54:01;27.80;99.90
33811;DHT22;20119;48.334;16.206;2023-08-17T15:56:30;27.60;99.90
33811;DHT22;20119;48.334;16.206;2023-08-17T15:58:57;27.60;99.90
33811;DHT22;20119;48.334;16.206;2023-08-17T16:01:24;27.50;99.90
33811;DHT22;20119;48.334;16.206;2023-08-17T16:22:11;27.10;99.90
33811;DHT22;20119;48.334;16.206;2023-08-17T16:24:41;27.00;99.90
33811;DHT22;20119;48.334;16.206;2023-08-17T16:27:09;27.00;99.90
33811;DHT22;20119;48.334;16.206;2023-08-17T16:29:36;27.10;99.90
33811;DHT22;20119;48.334;16.206;2023-08-17T16:32:04;27.10;99.90
33811;DHT22;20119;48.334;16.206;2023-08-17T16:34:32;27.00;99.90
33811;DHT22;20119;48.334;16.206;2023-08-17T16:36:59;27.00;99.90
33811;DHT22;20119;48.334;16.206;2023-08-17T16:39:27;27.10;99.90
33811;DHT22;20119;48.334;16.206;2023-08-17T16:41:56;27.00;99.90
33811;DHT22;20119;48.334;16.206;2023-08-17T16:44:23;26.90;99.90
33811;DHT22;20119;48.334;16.206;2023-08-17T16:46:50;26.90;99.90
33811;DHT22;20119;48.334;16.206;2023-08-17T16:49:17;26.80;99.90
33811;DHT22;20119;48.334;16.206;2023-08-17T16:51:44;26.70;99.90
33811;DHT22;20119;48.334;16.206;2023-08-17T16:54:11;26.60;99.90
33811;DHT22;20119;48.334;16.206;2023-08-17T16:56:40;26.70;99.90
33811;DHT22;20119;48.334;16.206;2023-08-17T16:59:10;26.60;99.90
33811;DHT22;20119;48.334;16.206;2023-08-17T17:01:38;26.30;99.90
33811;DHT22;20119;48.334;16.206;2023-08-17T17:04:06;26.30;99.90
33811;DHT22;20119;48.334;16.206;2023-08-17T17:06:33;26.20;99.90
33811;DHT22;20119;48.334;16.206;2023-08-17T17:09:00;26.10;99.90
33811;DHT22;20119;48.334;16.206;2023-08-17T17:11:27;26.00;99.90
33811;DHT22;20119;48.334;16.206;2023-08-17T17:13:55;26.00;99.90
33811;DHT22;20119;48.334;16.206;2023-08-17T17:16:22;25.90;99.90
33811;DHT22;20119;48.334;16.206;2023-08-17T17:18:49;25.80;99.90
33811;DHT22;20119;48.334;16.206;2023-08-17T17:21:17;25.80;99.90
33811;DHT22;20119;48.334;16.206;2023-08-17T17:23:44;25.80;99.90
33811;DHT22;20119;48.334;16.206;2023-08-17T17:26:11;25.90;99.90
33811;DHT22;20119;48.334;16.206;2023-08-17T17:28:38;25.80;99.90
33811;DHT22;20119;48.334;16.206;2023-08-17T17:31:07;25.80;99.90
33811;DHT22;20119;48.334;16.206;2023-08-17T17:33:34;25.80;99.90
33811;DHT22;20119;48.334;16.206;2023-08-17T17:36:01;25.80;99.90
33811;DHT22;20119;48.334;16.206;2023-08-17T17:38:28;25.70;99.90
33811;DHT22;20119;48.334;16.206;2023-08-17T17:40:56;25.60;99.90
33811;DHT22;20119;48.334;16.206;2023-08-17T17:43:23;25.50;99.90
33811;DHT22;20119;48.334;16.206;2023-08-17T17:45:51;25.40;99.90
33811;DHT22;20119;48.334;16.206;2023-08-17T17:48:19;25.30;99.90
33811;DHT22;20119;48.334;16.206;2023-08-17T17:50:46;25.10;99.90
33811;DHT22;20119;48.334;16.206;2023-08-17T17:53:14;25.00;99.90
33811;DHT22;20119;48.334;16.206;2023-08-17T17:55:41;25.00;99.90
33811;DHT22;20119;48.334;16.206;2023-08-17T17:58:09;24.80;99.90
33811;DHT22;20119;48.334;16.206;2023-08-17T18:00:36;24.80;99.90
33811;DHT22;20119;48.334;16.206;2023-08-17T18:03:09;24.60;99.90
33811;DHT22;20119;48.334;16.206;2023-08-17T18:05:38;24.50;99.90
33811;DHT22;20119;48.334;16.206;2023-08-17T18:08:06;24.30;99.90
33811;DHT22;20119;48.334;16.206;2023-08-17T18:10:35;24.30;99.90
33811;DHT22;20119;48.334;16.206;2023-08-17T18:13:03;24.40;99.90
33811;DHT22;20119;48.334;16.206;2023-08-17T18:15:31;24.30;99.90
33811;DHT22;20119;48.334;16.206;2023-08-17T18:17:59;24.20;99.90
33811;DHT22;20119;48.334;16.206;2023-08-17T18:20:26;24.10;99.90
33811;DHT22;20119;48.334;16.206;2023-08-17T18:22:55;24.00;99.90
33811;DHT22;20119;48.334;16.206;2023-08-17T18:25:22;23.80;99.90
33811;DHT22;20119;48.334;16.206;2023-08-17T18:27:50;23.80;99.90
33811;DHT22;20119;48.334;16.206;2023-08-17T18:30:17;23.70;99.90
33811;DHT22;20119;48.334;16.206;2023-08-17T18:35:31;23.90;99.90
33811;DHT22;20119;48.334;16.206;2023-08-17T18:38:02;23.70;99.90
33811;DHT22;20119;48.334;16.206;2023-08-17T18:40:30;23.50;99.90
33811;DHT22;20119;48.334;16.206;2023-08-17T18:42:57;23.30;99.90
33811;DHT22;20119;48.334;16.206;2023-08-17T18:45:25;23.10;99.90
33811;DHT22;20119;48.334;16.206;2023-08-17T18:50:43;22.80;99.90
33811;DHT22;20119;48.334;16.206;2023-08-17T18:53:13;22.60;99.90
33811;DHT22;20119;48.334;16.206;2023-08-17T18:55:48;22.60;99.90
33811;DHT22;20119;48.334;16.206;2023-08-17T19:06:29;22.20;99.90
33811;DHT22;20119;48.334;16.206;2023-08-17T19:25:19;22.00;99.90
33811;DHT22;20119;48.334;16.206;2023-08-17T19:30:28;21.90;99.90
33811;DHT22;20119;48.334;16.206;2023-08-17T19:38:12;21.80;99.90
33811;DHT22;20119;48.334;16.206;2023-08-17T19:40:49;21.80;99.90
33811;DHT22;20119;48.334;16.206;2023-08-17T19:43:34;21.70;99.90
33811;DHT22;20119;48.334;16.206;2023-08-17T19:46:01;21.60;99.90
33811;DHT22;20119;48.334;16.206;2023-08-17T19:48:28;21.50;99.90
33811;DHT22;20119;48.334;16.206;2023-08-17T19:50:56;21.50;99.90
33811;DHT22;20119;48.334;16.206;2023-08-17T19:53:23;21.50;99.90
33811;DHT22;20119;48.334;16.206;2023-08-17T19:55:56;21.50;99.90
33811;DHT22;20119;48.334;16.206;2023-08-17T19:58:23;21.40;99.90
33811;DHT22;20119;48.334;16.206;2023-08-17T20:00:52;21.40;99.90
33811;DHT22;20119;48.334;16.206;2023-08-17T20:03:20;21.40;99.90
33811;DHT22;20119;48.334;16.206;2023-08-17T20:05:49;21.40;99.90
33811;DHT22;20119;48.334;16.206;2023-08-17T20:08:21;21.30;99.90
33811;DHT22;20119;48.334;16.206;2023-08-17T20:13:31;21.10;99.90
33811;DHT22;20119;48.334;16.206;2023-08-17T20:18:47;21.10;99.90
33811;DHT22;20119;48.334;16.206;2023-08-17T20:32:17;21.10;99.90
33811;DHT22;20119;48.334;16.206;2023-08-17T20:34:45;21.10;99.90
33811;DHT22;20119;48.334;16.206;2023-08-17T20:42:26;20.90;99.90
33811;DHT22;20119;48.334;16.206;2023-08-17T21:03:36;20.80;99.90
33811;DHT22;20119;48.334;16.206;2023-08-17T21:11:16;20.50;99.90
